Latest Weather Observations for Campbelltown

IDN60901

Issued at 9:31 pm EST Wednesday 24 May 2017 (issued every 10 minutes, with the page automatically refreshed every 10 minutes)

About weather observations | Map of Sydney area stations | Latest observations for Sydney area | Other Formats
Station Details ID: 068257 Name: CAMPBELLTOWN (MOUNT ANNAN) Lat: -34.06 Lon: 150.77 Height: 112.0 m
Data from the previous 72 hours. | See also: Recent months at Campbelltown
Date/Time
EST
Temp
°C
App
Temp
°C
Dew
Point
°C
Rel
Hum
%
Delta-T
°C
Wind Press
QNH
hPa
Press
MSL
hPa
Rain since
9am
mm
Dir  Spd
km/h
Gust
km/h
Spd
kts
Gust
kts
24/09:30pm 10.4 8.6 7.1 80 1.6 SW 6 9 3 5 - - 0.0
24/09:00pm 9.1 7.0 6.0 81 1.4 SW 6 13 3 7 - - 0.0
24/08:30pm 9.3 7.2 5.9 79 1.6 SSW 6 7 3 4 - - 0.0
24/08:00pm 9.7 8.6 5.3 74 2.0 CALM 0 0 0 0 - - 0.0
24/07:30pm 10.7 9.1 6.5 75 2.0 W 4 7 2 4 - - 0.0
24/07:00pm 12.0 10.8 4.7 61 3.3 CALM 0 0 0 0 - - 0.0
24/06:30pm 11.8 10.3 5.0 63 3.1 SW 2 9 1 5 - - 0.0
24/06:00pm 14.6 12.8 3.7 48 5.0 SW 2 7 1 4 - - 0.0
24/05:30pm 16.4 12.8 3.1 41 6.1 SW 11 20 6 11 - - 0.0
24/05:00pm 17.0 13.3 2.2 37 6.7 WSW 11 19 6 10 - - 0.0
24/04:30pm 17.9 13.7 1.8 34 7.3 WSW 13 30 7 16 - - 0.0
24/04:00pm 19.1 15.4 2.5 33 7.7 WSW 11 20 6 11 - - 0.0
24/03:30pm 19.4 14.1 1.9 31 8.0 W 19 33 10 18 - - 0.0
24/03:00pm 20.1 14.9 2.5 31 8.2 W 19 37 10 20 - - 0.0
24/02:30pm 20.5 15.9 3.7 33 8.1 WSW 17 28 9 15 - - 0.0
24/02:00pm 20.3 14.8 1.7 29 8.6 WSW 20 37 11 20 - - 0.0
24/01:30pm 20.4 15.0 2.3 30 8.4 WSW 20 37 11 20 - - 0.0
24/01:00pm 20.9 16.5 4.5 34 8.0 W 17 28 9 15 - - 0.0
24/12:30pm 21.0 17.3 6.5 39 7.4 WSW 15 24 8 13 - - 0.0
24/12:00pm 20.3 16.8 8.9 48 6.0 WSW 17 28 9 15 - - 0.0
24/11:30am 20.0 18.9 11.8 59 4.6 WSW 9 17 5 9 - - 0.0
24/11:00am 18.1 17.6 12.8 71 3.0 NNW 7 11 4 6 - - 0.0
24/10:30am 15.9 16.0 12.6 81 1.8 WNW 4 9 2 5 - - 0.0
24/10:00am 15.3 15.0 12.6 84 1.5 SSW 6 11 3 6 - - 0.0
24/09:30am 15.1 15.0 13.8 92 0.7 S 7 11 4 6 - - 0.0
24/09:00am 15.4 16.1 14.4 94 0.6 S 4 7 2 4 - - 7.6
24/08:30am 13.4 14.0 13.2 99 0.1 SSW 2 6 1 3 - - 7.6
24/08:00am 12.4 13.1 12.2 99 0.1 CALM 0 0 0 0 - - 7.6
24/07:30am 10.5 10.6 10.3 99 0.1 CALM 0 0 0 0 - - 7.6
24/07:00am 10.3 10.4 10.1 99 0.1 CALM 0 0 0 0 - - 7.6
24/06:30am 10.6 10.4 10.4 99 0.1 SW 2 7 1 4 - - 7.6
24/06:00am 11.3 10.9 11.1 99 0.1 S 4 7 2 4 - - 7.6
24/05:30am 11.2 11.5 11.0 99 0.1 CALM 0 7 0 4 - - 7.6
24/05:00am 11.1 10.6 10.9 99 0.1 S 4 6 2 3 - - 7.6
24/04:30am 11.7 11.0 11.5 99 0.1 SSE 6 9 3 5 - - 7.6
24/04:00am 11.7 11.0 11.5 99 0.1 SSW 6 11 3 6 - - 7.2
24/03:30am 11.2 9.8 11.0 99 0.1 SSW 9 19 5 10 - - 0.0
24/03:00am 10.5 10.6 10.3 99 0.1 CALM 0 0 0 0 - - 0.0
24/02:30am 10.9 10.8 10.7 99 0.1 S 2 7 1 4 - - 0.0
24/02:00am 11.2 10.8 11.0 99 0.1 S 4 7 2 4 - - 0.0
24/01:30am 9.7 9.6 9.6 99 0.1 CALM 0 0 0 0 - - 0.0
24/01:00am 9.6 9.5 9.5 99 0.1 CALM 0 0 0 0 - - 0.0
24/12:30am 9.9 9.5 9.8 99 0.1 S 2 6 1 3 - - 0.0
24/12:00am 10.4 10.5 10.2 99 0.1 CALM 0 4 0 2 - - 0.0
 
Date/Time
EST
Temp
°C
App
Temp
°C
Dew
Point
°C
Rel
Hum
%
Delta-T
°C
Wind Press
QNH
hPa
Press
MSL
hPa
Rain since
9am
mm
Dir  Spd
km/h
Gust
km/h
Spd
kts
Gust
kts
23/11:30pm 10.5 10.6 10.3 99 0.1 CALM 0 0 0 0 - - 0.0
23/11:00pm 11.7 11.8 11.5 99 0.1 NE 2 6 1 3 - - 0.0
23/10:30pm 11.7 12.2 11.5 99 0.1 CALM 0 0 0 0 - - 0.0
23/10:00pm 12.2 12.8 12.0 99 0.1 CALM 0 0 0 0 - - 0.0
23/09:30pm 12.0 12.5 11.7 98 0.2 CALM 0 0 0 0 - - 0.0
23/09:00pm 12.4 13.0 11.9 97 0.3 CALM 0 0 0 0 - - 0.0
23/08:30pm 12.3 11.6 11.5 95 0.4 NE 6 7 3 4 - - 0.0
23/08:00pm 13.0 13.7 12.1 94 0.5 CALM 0 0 0 0 - - 0.0
23/07:30pm 13.7 13.4 12.6 93 0.6 NE 6 7 3 4 - - 0.0
23/07:00pm 14.5 14.7 13.0 91 0.8 NE 4 6 2 3 - - 0.0
23/06:30pm 14.8 15.7 13.0 89 1.0 CALM 0 7 0 4 - - 0.0
23/06:00pm 14.6 15.4 12.5 87 1.2 CALM 0 0 0 0 - - 0.0
23/05:30pm 15.7 16.4 12.3 80 1.9 CALM 0 0 0 0 - - 0.0
23/05:00pm 17.1 17.9 12.6 75 2.5 CALM 0 0 0 0 - - 0.0
23/04:30pm 19.1 19.9 12.6 66 3.7 CALM 0 4 0 2 - - 0.0
23/04:00pm 20.7 19.8 11.3 55 5.2 NNE 7 11 4 6 - - 0.0
23/03:30pm 22.0 21.0 11.1 50 6.1 NE 7 11 4 6 - - 0.0
23/03:00pm 22.3 20.9 10.8 48 6.4 N 9 15 5 8 - - 0.0
23/02:30pm 22.5 21.4 11.9 51 6.0 N 9 15 5 8 - - 0.0
23/02:00pm 22.5 20.8 11.3 49 6.3 NNW 11 17 6 9 - - 0.0
23/01:30pm 22.4 21.5 12.6 54 5.6 NNW 9 15 5 8 - - 0.0
23/01:00pm 22.1 21.0 13.2 57 5.1 N 11 17 6 9 - - 0.0
23/12:30pm 21.4 20.6 12.8 58 4.9 N 9 13 5 7 - - 0.0
23/12:00pm 21.1 20.4 13.3 61 4.5 N 9 17 5 9 - - 0.0
23/11:30am 20.6 19.9 13.3 63 4.2 NNW 9 15 5 8 - - 0.0
23/11:00am 20.3 20.0 13.3 64 4.0 N 7 11 4 6 - - 0.0
23/10:30am 19.5 18.8 13.2 67 3.6 NNW 9 11 5 6 - - 0.0
23/10:00am 18.3 18.2 13.2 72 2.9 SW 6 7 3 4 - - 0.0
23/09:30am 16.7 16.6 13.4 81 1.9 SSW 6 9 3 5 - - 0.0
23/09:00am 15.5 15.8 14.4 93 0.6 SW 6 9 3 5 - - 0.0
23/08:30am 14.1 15.0 13.9 99 0.1 SSW 2 7 1 4 - - 0.0
23/08:00am 12.4 13.1 12.2 99 0.1 CALM 0 0 0 0 - - 0.0
23/07:30am 10.8 11.0 10.6 99 0.1 CALM 0 0 0 0 - - 0.0
23/07:00am 10.1 10.2 10.0 99 0.1 CALM 0 0 0 0 - - 0.0
23/06:30am 10.6 10.8 10.4 99 0.1 CALM 0 0 0 0 - - 0.0
23/06:00am 11.0 11.3 10.8 99 0.1 CALM 0 0 0 0 - - 0.0
23/05:30am 11.7 12.2 11.5 99 0.1 CALM 0 0 0 0 - - 0.0
23/05:00am 11.8 12.3 11.6 99 0.1 CALM 0 0 0 0 - - 0.0
23/04:30am 12.0 12.6 11.8 99 0.1 CALM 0 0 0 0 - - 0.0
23/04:00am 12.2 12.8 12.0 99 0.1 CALM 0 0 0 0 - - 0.0
23/03:30am 12.4 13.1 12.2 99 0.1 CALM 0 0 0 0 - - 0.0
23/03:00am 12.5 13.2 12.3 99 0.1 CALM 0 0 0 0 - - 0.0
23/02:30am 12.4 13.1 12.2 99 0.1 CALM 0 0 0 0 - - 0.0
23/02:00am 12.0 12.6 11.8 99 0.1 CALM 0 0 0 0 - - 0.0
23/01:30am 12.4 13.1 12.2 99 0.1 CALM 0 0 0 0 - - 0.0
23/01:00am 12.6 13.4 12.4 99 0.1 CALM 0 0 0 0 - - 0.0
23/12:30am 12.7 13.5 12.5 99 0.1 CALM 0 0 0 0 - - 0.0
23/12:00am 12.5 13.2 12.3 99 0.1 CALM 0 0 0 0 - - 0.0
 
Date/Time
EST
Temp
°C
App
Temp
°C
Dew
Point
°C
Rel
Hum
%
Delta-T
°C
Wind Press
QNH
hPa
Press
MSL
hPa
Rain since
9am
mm
Dir  Spd
km/h
Gust
km/h
Spd
kts
Gust
kts
22/11:30pm 12.6 13.4 12.4 99 0.1 CALM 0 0 0 0 - - 0.0
22/11:00pm 12.8 13.2 12.6 99 0.1 SSW 2 6 1 3 - - 0.0
22/10:30pm 12.8 13.6 12.6 99 0.1 CALM 0 0 0 0 - - 0.0
22/10:00pm 12.4 13.1 12.1 98 0.2 CALM 0 0 0 0 - - 0.0
22/09:30pm 12.9 13.7 12.6 98 0.2 CALM 0 0 0 0 - - 0.0
22/09:00pm 13.3 13.5 13.0 98 0.2 ESE 4 7 2 4 - - 0.0
22/08:30pm 13.4 14.4 13.1 98 0.2 CALM 0 0 0 0 - - 0.0
22/08:00pm 13.1 13.9 12.6 97 0.3 CALM 0 0 0 0 - - 0.0
22/07:30pm 13.0 13.7 12.1 94 0.5 CALM 0 0 0 0 - - 0.0
22/07:00pm 13.6 13.1 12.0 90 0.9 E 6 7 3 4 - - 0.0
22/06:30pm 14.9 14.7 13.1 89 1.0 E 6 9 3 5 - - 0.0
22/06:00pm 15.7 15.6 13.2 85 1.4 E 6 7 3 4 - - 0.0
22/05:30pm 16.2 16.0 13.1 82 1.7 E 6 11 3 6 - - 0.0
22/05:00pm 17.0 16.8 13.1 78 2.2 E 6 9 3 5 - - 0.0
22/04:30pm 17.8 17.4 12.9 73 2.8 ENE 7 13 4 7 - - 0.0
22/04:00pm 18.9 18.0 12.6 67 3.5 ESE 9 17 5 9 - - 0.0
22/03:30pm 20.3 18.9 11.0 55 5.1 NNE 9 13 5 7 - - 0.0
22/03:00pm 21.2 19.7 10.7 51 5.8 NNE 9 13 5 7 - - 0.0
22/02:30pm 21.1 19.6 10.6 51 5.8 N 9 13 5 7 - - 0.0
22/02:00pm 20.7 19.6 10.5 52 5.6 N 7 11 4 6 - - 0.0
22/01:30pm 20.9 19.7 11.5 55 5.2 NNE 9 11 5 6 - - 0.0
22/01:00pm 21.0 20.0 12.4 58 4.9 N 9 13 5 7 - - 0.0
22/12:30pm 20.4 19.7 11.9 58 4.8 NE 7 13 4 7 - - 0.0
22/12:00pm 19.4 18.3 11.9 62 4.2 N 9 13 5 7 - - 0.0
22/11:30am 20.5 20.6 13.9 66 3.8 N 6 9 3 5 - - 0.0
22/11:00am 19.0 19.1 13.8 72 3.0 WNW 6 7 3 4 - - 0.0
22/10:30am 17.7 18.7 14.2 80 2.0 S 2 7 1 4 - - 0.0
22/10:00am 15.9 15.8 13.4 85 1.4 SSE 6 9 3 5 - - 0.0
22/09:30am 14.9 14.5 12.9 88 1.1 S 7 11 4 6 - - 0.0
22/09:00am 13.4 12.3 12.1 92 0.7 SSW 9 11 5 6 - - 0.0
22/08:30am 12.4 11.8 11.8 96 0.3 S 6 9 3 5 - - 0.0
22/08:00am 11.8 11.1 11.5 98 0.2 S 6 9 3 5 - - 0.0
22/07:30am 10.7 9.6 10.5 99 0.1 S 7 11 4 6 - - 0.0
22/07:00am 10.0 9.2 9.7 98 0.2 SSW 4 7 2 4 - - 0.0
22/06:30am 10.6 10.0 10.3 98 0.2 SSW 4 7 2 4 - - 0.0
22/06:00am 11.1 10.1 10.9 99 0.1 S 7 11 4 6 - - 0.0
22/05:30am 11.0 10.1 10.8 99 0.1 S 6 9 3 5 - - 0.0
22/05:00am 10.7 9.7 10.2 97 0.3 SSW 6 9 3 5 - - 0.0
22/04:30am 11.5 10.6 11.3 99 0.1 SSW 7 11 4 6 - - 0.0
22/04:00am 11.1 10.3 10.9 99 0.1 SSW 6 9 3 5 - - 0.0
22/03:30am 11.1 10.1 10.9 99 0.1 SSW 7 11 4 6 - - 0.0
22/03:00am 10.6 10.7 10.1 97 0.3 CALM 0 0 0 0 - - 0.0
22/02:30am 11.7 11.7 11.2 97 0.3 NNW 2 6 1 3 - - 0.0
22/02:00am 12.1 11.0 11.8 98 0.2 S 9 15 5 8 - - 0.0
22/01:30am 12.0 10.9 11.8 99 0.1 SSW 9 13 5 7 - - 0.0
22/01:00am 12.3 11.6 12.1 99 0.1 SSW 7 13 4 7 - - 0.0
22/12:30am 12.1 11.4 11.9 99 0.1 S 7 9 4 5 - - 0.0
22/12:00am 11.2 10.4 11.0 99 0.1 S 6 9 3 5 - - 0.0
 
Date/Time
EST
Temp
°C
App
Temp
°C
Dew
Point
°C
Rel
Hum
%
Delta-T
°C
Wind Press
QNH
hPa
Press
MSL
hPa
Rain since
9am
mm
Dir  Spd
km/h
Gust
km/h
Spd
kts
Gust
kts
21/11:30pm 10.5 10.6 10.3 99 0.1 CALM 0 0 0 0 - - 0.0
21/11:00pm 10.7 10.9 10.5 99 0.1 CALM 0 0 0 0 - - 0.0
21/10:30pm 10.3 10.4 10.1 99 0.1 CALM 0 0 0 0 - - 0.0
21/10:00pm 10.8 11.0 10.6 99 0.1 CALM 0 0 0 0 - - 0.0

Latest Capital City Observations: Canberra | Sydney | Melbourne | Brisbane | Adelaide | Perth | Hobart | Darwin

Other Formats:

Comma delimited format used in spreadsheet applications
http://www.bom.gov.au/fwo/IDN60901/IDN60901.94757.axf

JavaScript Object Notation format (JSON) in row-major order
http://www.bom.gov.au/fwo/IDN60901/IDN60901.94757.json